sensor_id;sensor_type;location;lat;lon;timestamp;temperature;humidity
76102;SHT30;64830;46.910;6.354;2023-12-07T00:01:33;0.96;85.14
76102;SHT30;64830;46.910;6.354;2023-12-07T00:04:00;0.94;85.13
76102;SHT30;64830;46.910;6.354;2023-12-07T00:06:26;0.91;85.00
76102;SHT30;64830;46.910;6.354;2023-12-07T00:08:52;0.87;85.13
76102;SHT30;64830;46.910;6.354;2023-12-07T00:11:17;0.84;84.86
76102;SHT30;64830;46.910;6.354;2023-12-07T00:13:42;0.80;84.62
76102;SHT30;64830;46.910;6.354;2023-12-07T00:16:08;0.75;84.98
76102;SHT30;64830;46.910;6.354;2023-12-07T00:18:33;0.71;84.62
76102;SHT30;64830;46.910;6.354;2023-12-07T00:20:59;0.70;84.80
76102;SHT30;64830;46.910;6.354;2023-12-07T00:23:24;0.66;84.77
76102;SHT30;64830;46.910;6.354;2023-12-07T00:25:50;0.64;84.81
76102;SHT30;64830;46.910;6.354;2023-12-07T00:28:15;0.63;84.93
76102;SHT30;64830;46.910;6.354;2023-12-07T00:30:41;0.63;84.91
76102;SHT30;64830;46.910;6.354;2023-12-07T00:33:07;0.63;84.95
76102;SHT30;64830;46.910;6.354;2023-12-07T00:35:33;0.63;84.64
76102;SHT30;64830;46.910;6.354;2023-12-07T00:37:58;0.60;84.54
76102;SHT30;64830;46.910;6.354;2023-12-07T00:40:24;0.56;84.39
76102;SHT30;64830;46.910;6.354;2023-12-07T00:42:49;0.56;84.62
76102;SHT30;64830;46.910;6.354;2023-12-07T00:45:15;0.54;84.59
76102;SHT30;64830;46.910;6.354;2023-12-07T00:47:40;0.50;84.40
76102;SHT30;64830;46.910;6.354;2023-12-07T00:50:07;0.47;84.26
76102;SHT30;64830;46.910;6.354;2023-12-07T00:52:33;0.43;84.35
76102;SHT30;64830;46.910;6.354;2023-12-07T00:54:58;0.40;84.42
76102;SHT30;64830;46.910;6.354;2023-12-07T00:57:24;0.39;84.45
76102;SHT30;64830;46.910;6.354;2023-12-07T00:59:49;0.36;84.48
76102;SHT30;64830;46.910;6.354;2023-12-07T01:02:15;0.35;84.55
76102;SHT30;64830;46.910;6.354;2023-12-07T01:04:40;0.32;84.60
76102;SHT30;64830;46.910;6.354;2023-12-07T01:07:05;0.30;84.76
76102;SHT30;64830;46.910;6.354;2023-12-07T01:09:31;0.26;84.36
76102;SHT30;64830;46.910;6.354;2023-12-07T01:11:56;0.25;84.51
76102;SHT30;64830;46.910;6.354;2023-12-07T01:14:23;0.21;84.52
76102;SHT30;64830;46.910;6.354;2023-12-07T01:16:49;0.21;84.86
76102;SHT30;64830;46.910;6.354;2023-12-07T01:19:14;0.21;84.88
76102;SHT30;64830;46.910;6.354;2023-12-07T01:21:41;0.21;84.73
76102;SHT30;64830;46.910;6.354;2023-12-07T01:24:09;0.21;84.79
76102;SHT30;64830;46.910;6.354;2023-12-07T01:26:35;0.19;84.77
76102;SHT30;64830;46.910;6.354;2023-12-07T01:29:01;0.16;84.73
76102;SHT30;64830;46.910;6.354;2023-12-07T01:31:26;0.13;84.34
76102;SHT30;64830;46.910;6.354;2023-12-07T01:33:51;0.13;84.54
76102;SHT30;64830;46.910;6.354;2023-12-07T01:36:17;0.08;83.95
76102;SHT30;64830;46.910;6.354;2023-12-07T01:38:42;0.08;84.04
76102;SHT30;64830;46.910;6.354;2023-12-07T01:41:09;0.05;83.73
76102;SHT30;64830;46.910;6.354;2023-12-07T01:43:34;-0.02;83.86
76102;SHT30;64830;46.910;6.354;2023-12-07T01:46:00;-0.07;83.90
76102;SHT30;64830;46.910;6.354;2023-12-07T01:48:26;-0.09;84.04
76102;SHT30;64830;46.910;6.354;2023-12-07T01:50:53;-0.12;84.35
76102;SHT30;64830;46.910;6.354;2023-12-07T01:53:21;-0.16;84.41
76102;SHT30;64830;46.910;6.354;2023-12-07T01:55:48;-0.17;84.13
76102;SHT30;64830;46.910;6.354;2023-12-07T01:58:17;-0.22;83.60
76102;SHT30;64830;46.910;6.354;2023-12-07T02:00:43;-0.26;83.58
76102;SHT30;64830;46.910;6.354;2023-12-07T02:03:10;-0.30;83.83
76102;SHT30;64830;46.910;6.354;2023-12-07T02:05:36;-0.33;84.27
76102;SHT30;64830;46.910;6.354;2023-12-07T02:08:03;-0.32;84.35
76102;SHT30;64830;46.910;6.354;2023-12-07T02:10:28;-0.32;84.18
76102;SHT30;64830;46.910;6.354;2023-12-07T02:12:54;-0.29;84.31
76102;SHT30;64830;46.910;6.354;2023-12-07T02:15:20;-0.26;84.25
76102;SHT30;64830;46.910;6.354;2023-12-07T02:18:13;-0.29;84.65
76102;SHT30;64830;46.910;6.354;2023-12-07T02:23:16;-0.51;85.28
76102;SHT30;64830;46.910;6.354;2023-12-07T02:25:52;-0.57;85.73
76102;SHT30;64830;46.910;6.354;2023-12-07T02:28:18;-0.61;85.86
76102;SHT30;64830;46.910;6.354;2023-12-07T02:30:44;-0.64;86.08
76102;SHT30;64830;46.910;6.354;2023-12-07T02:33:10;-0.58;86.23
76102;SHT30;64830;46.910;6.354;2023-12-07T02:35:37;-0.61;86.23
76102;SHT30;64830;46.910;6.354;2023-12-07T02:38:03;-0.60;86.27
76102;SHT30;64830;46.910;6.354;2023-12-07T02:40:29;-0.60;86.14
76102;SHT30;64830;46.910;6.354;2023-12-07T02:42:56;-0.62;86.05
76102;SHT30;64830;46.910;6.354;2023-12-07T02:45:22;-0.65;86.04
76102;SHT30;64830;46.910;6.354;2023-12-07T02:47:48;-0.71;86.05
76102;SHT30;64830;46.910;6.354;2023-12-07T02:50:13;-0.75;86.23
76102;SHT30;64830;46.910;6.354;2023-12-07T02:52:40;-0.74;86.25
76102;SHT30;64830;46.910;6.354;2023-12-07T02:55:06;-0.75;86.25
76102;SHT30;64830;46.910;6.354;2023-12-07T02:57:31;-0.75;85.97
76102;SHT30;64830;46.910;6.354;2023-12-07T02:59:59;-0.77;85.92
76102;SHT30;64830;46.910;6.354;2023-12-07T03:02:25;-0.75;85.92
76102;SHT30;64830;46.910;6.354;2023-12-07T03:04:50;-0.77;85.66
76102;SHT30;64830;46.910;6.354;2023-12-07T03:07:16;-0.82;85.52
76102;SHT30;64830;46.910;6.354;2023-12-07T03:09:41;-0.91;85.48
76102;SHT30;64830;46.910;6.354;2023-12-07T03:12:07;-0.93;85.78
76102;SHT30;64830;46.910;6.354;2023-12-07T03:14:32;-0.97;85.96
76102;SHT30;64830;46.910;6.354;2023-12-07T03:16:58;-0.96;86.02
76102;SHT30;64830;46.910;6.354;2023-12-07T03:19:24;-0.97;86.21
76102;SHT30;64830;46.910;6.354;2023-12-07T03:21:49;-0.96;86.09
76102;SHT30;64830;46.910;6.354;2023-12-07T03:24:14;-0.97;85.88
76102;SHT30;64830;46.910;6.354;2023-12-07T03:26:40;-1.00;85.89
76102;SHT30;64830;46.910;6.354;2023-12-07T03:29:06;-1.05;85.89
76102;SHT30;64830;46.910;6.354;2023-12-07T03:31:31;-1.07;85.81
76102;SHT30;64830;46.910;6.354;2023-12-07T03:33:56;-1.10;85.87
76102;SHT30;64830;46.910;6.354;2023-12-07T03:36:22;-1.13;85.87
76102;SHT30;64830;46.910;6.354;2023-12-07T03:38:49;-1.17;85.82
76102;SHT30;64830;46.910;6.354;2023-12-07T03:41:14;-1.21;85.96
76102;SHT30;64830;46.910;6.354;2023-12-07T03:43:40;-1.19;86.05
76102;SHT30;64830;46.910;6.354;2023-12-07T03:46:06;-1.20;85.96
76102;SHT30;64830;46.910;6.354;2023-12-07T03:48:32;-1.31;86.07
76102;SHT30;64830;46.910;6.354;2023-12-07T03:50:58;-1.39;86.16
76102;SHT30;64830;46.910;6.354;2023-12-07T03:53:23;-1.47;86.26
76102;SHT30;64830;46.910;6.354;2023-12-07T03:55:48;-1.48;86.44
76102;SHT30;64830;46.910;6.354;2023-12-07T03:58:14;-1.51;86.55
76102;SHT30;64830;46.910;6.354;2023-12-07T04:00:40;-1.47;86.71
76102;SHT30;64830;46.910;6.354;2023-12-07T04:03:05;-1.51;86.94
76102;SHT30;64830;46.910;6.354;2023-12-07T04:05:31;-1.48;86.83
76102;SHT30;64830;46.910;6.354;2023-12-07T04:07:57;-1.47;86.77
76102;SHT30;64830;46.910;6.354;2023-12-07T04:10:22;-1.46;86.66
76102;SHT30;64830;46.910;6.354;2023-12-07T04:12:48;-1.44;86.47
76102;SHT30;64830;46.910;6.354;2023-12-07T04:15:14;-1.43;86.40
76102;SHT30;64830;46.910;6.354;2023-12-07T04:17:39;-1.39;86.41
76102;SHT30;64830;46.910;6.354;2023-12-07T04:20:05;-1.40;86.58
76102;SHT30;64830;46.910;6.354;2023-12-07T04:22:31;-1.39;86.49
76102;SHT30;64830;46.910;6.354;2023-12-07T04:24:56;-1.40;86.37
76102;SHT30;64830;46.910;6.354;2023-12-07T04:27:22;-1.44;86.26
76102;SHT30;64830;46.910;6.354;2023-12-07T04:29:47;-1.46;86.38
76102;SHT30;64830;46.910;6.354;2023-12-07T04:32:13;-1.50;86.49
76102;SHT30;64830;46.910;6.354;2023-12-07T04:34:38;-1.50;86.60
76102;SHT30;64830;46.910;6.354;2023-12-07T04:37:03;-1.54;86.93
76102;SHT30;64830;46.910;6.354;2023-12-07T04:39:29;-1.50;87.03
76102;SHT30;64830;46.910;6.354;2023-12-07T04:41:55;-1.46;86.88
76102;SHT30;64830;46.910;6.354;2023-12-07T04:44:20;-1.44;86.31
76102;SHT30;64830;46.910;6.354;2023-12-07T04:46:46;-1.44;86.24
76102;SHT30;64830;46.910;6.354;2023-12-07T04:49:11;-1.47;86.26
76102;SHT30;64830;46.910;6.354;2023-12-07T04:51:37;-1.47;86.30
76102;SHT30;64830;46.910;6.354;2023-12-07T04:54:02;-1.47;86.36
76102;SHT30;64830;46.910;6.354;2023-12-07T04:56:28;-1.46;86.39
76102;SHT30;64830;46.910;6.354;2023-12-07T04:58:53;-1.43;86.21
76102;SHT30;64830;46.910;6.354;2023-12-07T05:01:19;-1.43;86.13
76102;SHT30;64830;46.910;6.354;2023-12-07T05:03:45;-1.39;85.98
76102;SHT30;64830;46.910;6.354;2023-12-07T05:06:10;-1.37;85.81
76102;SHT30;64830;46.910;6.354;2023-12-07T05:08:38;-1.34;85.98
76102;SHT30;64830;46.910;6.354;2023-12-07T05:11:04;-1.31;86.02
76102;SHT30;64830;46.910;6.354;2023-12-07T05:13:29;-1.30;85.97
76102;SHT30;64830;46.910;6.354;2023-12-07T05:15:55;-1.27;85.74
76102;SHT30;64830;46.910;6.354;2023-12-07T05:18:20;-1.24;85.94
76102;SHT30;64830;46.910;6.354;2023-12-07T05:20:45;-1.20;85.36
76102;SHT30;64830;46.910;6.354;2023-12-07T05:23:11;-1.29;84.82
76102;SHT30;64830;46.910;6.354;2023-12-07T05:25:36;-1.31;84.94
76102;SHT30;64830;46.910;6.354;2023-12-07T05:28:02;-1.40;84.77
76102;SHT30;64830;46.910;6.354;2023-12-07T05:30:28;-1.50;84.90
76102;SHT30;64830;46.910;6.354;2023-12-07T05:32:54;-1.54;84.82
76102;SHT30;64830;46.910;6.354;2023-12-07T05:35:19;-1.59;85.04
76102;SHT30;64830;46.910;6.354;2023-12-07T05:37:45;-1.57;85.19
76102;SHT30;64830;46.910;6.354;2023-12-07T05:40:11;-1.54;85.28
76102;SHT30;64830;46.910;6.354;2023-12-07T05:42:38;-1.54;85.23
76102;SHT30;64830;46.910;6.354;2023-12-07T05:45:04;-1.48;85.07
76102;SHT30;64830;46.910;6.354;2023-12-07T05:47:31;-1.47;84.97
76102;SHT30;64830;46.910;6.354;2023-12-07T05:49:57;-1.46;85.26
76102;SHT30;64830;46.910;6.354;2023-12-07T05:52:25;-1.43;85.46
76102;SHT30;64830;46.910;6.354;2023-12-07T05:54:50;-1.39;85.48
76102;SHT30;64830;46.910;6.354;2023-12-07T05:57:15;-1.39;85.56
76102;SHT30;64830;46.910;6.354;2023-12-07T05:59:41;-1.36;85.45
76102;SHT30;64830;46.910;6.354;2023-12-07T06:02:08;-1.33;85.44
76102;SHT30;64830;46.910;6.354;2023-12-07T06:04:33;-1.27;85.56
76102;SHT30;64830;46.910;6.354;2023-12-07T06:06:59;-1.27;84.85
76102;SHT30;64830;46.910;6.354;2023-12-07T06:09:24;-1.27;84.86
76102;SHT30;64830;46.910;6.354;2023-12-07T06:11:50;-1.37;84.17
76102;SHT30;64830;46.910;6.354;2023-12-07T06:14:15;-1.47;84.38
76102;SHT30;64830;46.910;6.354;2023-12-07T06:16:41;-1.54;84.67
76102;SHT30;64830;46.910;6.354;2023-12-07T06:19:06;-1.55;84.99
76102;SHT30;64830;46.910;6.354;2023-12-07T06:21:32;-1.52;85.01
76102;SHT30;64830;46.910;6.354;2023-12-07T06:23:58;-1.54;84.93
76102;SHT30;64830;46.910;6.354;2023-12-07T06:26:26;-1.54;84.80
76102;SHT30;64830;46.910;6.354;2023-12-07T06:28:51;-1.55;85.00
76102;SHT30;64830;46.910;6.354;2023-12-07T06:31:17;-1.55;85.13
76102;SHT30;64830;46.910;6.354;2023-12-07T06:33:46;-1.55;85.03
76102;SHT30;64830;46.910;6.354;2023-12-07T06:36:18;-1.52;85.82
76102;SHT30;64830;46.910;6.354;2023-12-07T06:38:43;-1.52;85.23
76102;SHT30;64830;46.910;6.354;2023-12-07T06:41:09;-1.50;85.39
76102;SHT30;64830;46.910;6.354;2023-12-07T06:43:35;-1.44;85.49
76102;SHT30;64830;46.910;6.354;2023-12-07T06:46:00;-1.36;85.55
76102;SHT30;64830;46.910;6.354;2023-12-07T06:48:26;-1.31;85.28
76102;SHT30;64830;46.910;6.354;2023-12-07T06:50:51;-1.24;85.33
76102;SHT30;64830;46.910;6.354;2023-12-07T06:53:17;-1.20;85.18
76102;SHT30;64830;46.910;6.354;2023-12-07T06:55:43;-1.17;85.29
76102;SHT30;64830;46.910;6.354;2023-12-07T06:58:09;-1.13;85.34
76102;SHT30;64830;46.910;6.354;2023-12-07T07:00:35;-1.06;85.36
76102;SHT30;64830;46.910;6.354;2023-12-07T07:03:01;-1.00;85.31
76102;SHT30;64830;46.910;6.354;2023-12-07T07:05:26;-0.93;85.15
76102;SHT30;64830;46.910;6.354;2023-12-07T07:07:52;-0.92;84.99
76102;SHT30;64830;46.910;6.354;2023-12-07T07:10:17;-0.86;84.71
76102;SHT30;64830;46.910;6.354;2023-12-07T07:12:43;-0.79;84.93
76102;SHT30;64830;46.910;6.354;2023-12-07T07:15:09;-0.78;84.87
76102;SHT30;64830;46.910;6.354;2023-12-07T07:17:34;-0.77;84.88
76102;SHT30;64830;46.910;6.354;2023-12-07T07:20:00;-0.71;84.89
76102;SHT30;64830;46.910;6.354;2023-12-07T07:22:25;-0.68;84.82
76102;SHT30;64830;46.910;6.354;2023-12-07T07:24:51;-0.62;84.82
76102;SHT30;64830;46.910;6.354;2023-12-07T07:27:17;-0.61;84.60
76102;SHT30;64830;46.910;6.354;2023-12-07T07:29:43;-0.54;84.88
76102;SHT30;64830;46.910;6.354;2023-12-07T07:32:08;-0.49;84.87
76102;SHT30;64830;46.910;6.354;2023-12-07T07:34:34;-0.43;84.84
76102;SHT30;64830;46.910;6.354;2023-12-07T07:36:59;-0.40;84.57
76102;SHT30;64830;46.910;6.354;2023-12-07T07:39:25;-0.36;84.82
76102;SHT30;64830;46.910;6.354;2023-12-07T07:41:50;-0.32;85.02
76102;SHT30;64830;46.910;6.354;2023-12-07T07:44:15;-0.26;84.85
76102;SHT30;64830;46.910;6.354;2023-12-07T07:46:42;-0.19;84.73
76102;SHT30;64830;46.910;6.354;2023-12-07T07:49:07;-0.12;84.54
76102;SHT30;64830;46.910;6.354;2023-12-07T07:51:32;0.01;84.85
76102;SHT30;64830;46.910;6.354;2023-12-07T07:54:01;0.09;84.48
76102;SHT30;64830;46.910;6.354;2023-12-07T07:56:26;0.16;84.57
76102;SHT30;64830;46.910;6.354;2023-12-07T07:58:52;0.15;83.34
76102;SHT30;64830;46.910;6.354;2023-12-07T08:01:17;0.02;83.53
76102;SHT30;64830;46.910;6.354;2023-12-07T08:03:43;-0.02;83.73
76102;SHT30;64830;46.910;6.354;2023-12-07T08:06:08;-0.06;83.61
76102;SHT30;64830;46.910;6.354;2023-12-07T08:08:34;-0.07;84.02
76102;SHT30;64830;46.910;6.354;2023-12-07T08:10:59;-0.09;83.92
76102;SHT30;64830;46.910;6.354;2023-12-07T08:13:26;-0.09;84.05
76102;SHT30;64830;46.910;6.354;2023-12-07T08:15:52;-0.13;84.02
76102;SHT30;64830;46.910;6.354;2023-12-07T08:18:18;-0.15;84.23
76102;SHT30;64830;46.910;6.354;2023-12-07T08:20:44;-0.12;84.22
76102;SHT30;64830;46.910;6.354;2023-12-07T08:23:09;-0.12;83.82
76102;SHT30;64830;46.910;6.354;2023-12-07T08:25:36;-0.16;84.10
76102;SHT30;64830;46.910;6.354;2023-12-07T08:28:03;-0.13;84.04
76102;SHT30;64830;46.910;6.354;2023-12-07T08:30:28;-0.13;84.33
76102;SHT30;64830;46.910;6.354;2023-12-07T08:32:54;-0.06;83.79
76102;SHT30;64830;46.910;6.354;2023-12-07T08:35:19;-0.03;83.89
76102;SHT30;64830;46.910;6.354;2023-12-07T08:37:45;0.05;84.53
76102;SHT30;64830;46.910;6.354;2023-12-07T08:40:10;0.15;84.34
76102;SHT30;64830;46.910;6.354;2023-12-07T08:42:36;0.29;84.58
76102;SHT30;64830;46.910;6.354;2023-12-07T08:45:02;0.39;84.51
76102;SHT30;64830;46.910;6.354;2023-12-07T08:47:28;0.50;84.28
76102;SHT30;64830;46.910;6.354;2023-12-07T08:49:55;0.60;84.09
76102;SHT30;64830;46.910;6.354;2023-12-07T08:52:20;0.71;84.18
76102;SHT30;64830;46.910;6.354;2023-12-07T08:54:46;0.81;83.98
76102;SHT30;64830;46.910;6.354;2023-12-07T08:57:12;0.88;84.08
76102;SHT30;64830;46.910;6.354;2023-12-07T08:59:37;1.01;83.68
76102;SHT30;64830;46.910;6.354;2023-12-07T09:02:03;1.13;83.88
76102;SHT30;64830;46.910;6.354;2023-12-07T09:04:28;1.29;83.50
76102;SHT30;64830;46.910;6.354;2023-12-07T09:06:54;1.43;83.32
76102;SHT30;64830;46.910;6.354;2023-12-07T09:09:19;1.54;81.91
76102;SHT30;64830;46.910;6.354;2023-12-07T09:11:45;1.64;82.40
76102;SHT30;64830;46.910;6.354;2023-12-07T09:14:10;1.68;82.27
76102;SHT30;64830;46.910;6.354;2023-12-07T09:16:43;1.65;82.10
76102;SHT30;64830;46.910;6.354;2023-12-07T09:19:08;1.64;82.36
76102;SHT30;64830;46.910;6.354;2023-12-07T09:21:34;1.58;82.29
76102;SHT30;64830;46.910;6.354;2023-12-07T09:23:59;1.60;82.66
76102;SHT30;64830;46.910;6.354;2023-12-07T09:26:25;1.58;82.55
76102;SHT30;64830;46.910;6.354;2023-12-07T09:28:50;1.60;82.63
76102;SHT30;64830;46.910;6.354;2023-12-07T09:31:16;1.67;82.39
76102;SHT30;64830;46.910;6.354;2023-12-07T09:33:42;1.70;82.36
76102;SHT30;64830;46.910;6.354;2023-12-07T09:36:07;1.74;82.31
76102;SHT30;64830;46.910;6.354;2023-12-07T09:38:35;1.74;82.83
76102;SHT30;64830;46.910;6.354;2023-12-07T09:41:02;1.84;82.83
76102;SHT30;64830;46.910;6.354;2023-12-07T09:43:27;1.89;82.92
76102;SHT30;64830;46.910;6.354;2023-12-07T09:45:54;1.85;82.97
76102;SHT30;64830;46.910;6.354;2023-12-07T09:48:21;1.86;83.15
76102;SHT30;64830;46.910;6.354;2023-12-07T09:50:46;1.94;83.07
76102;SHT30;64830;46.910;6.354;2023-12-07T09:53:13;1.94;83.11
76102;SHT30;64830;46.910;6.354;2023-12-07T09:55:38;1.97;83.29
76102;SHT30;64830;46.910;6.354;2023-12-07T09:58:05;2.05;83.27
76102;SHT30;64830;46.910;6.354;2023-12-07T10:00:31;2.16;83.46
76102;SHT30;64830;46.910;6.354;2023-12-07T10:02:56;2.27;83.16
76102;SHT30;64830;46.910;6.354;2023-12-07T10:05:21;2.37;83.03
76102;SHT30;64830;46.910;6.354;2023-12-07T10:07:48;2.48;82.67
76102;SHT30;64830;46.910;6.354;2023-12-07T10:10:15;2.57;82.36
76102;SHT30;64830;46.910;6.354;2023-12-07T10:12:51;2.70;82.29
76102;SHT30;64830;46.910;6.354;2023-12-07T10:15:18;2.80;81.70
76102;SHT30;64830;46.910;6.354;2023-12-07T10:17:58;2.84;81.59
76102;SHT30;64830;46.910;6.354;2023-12-07T10:20:27;2.89;81.55
76102;SHT30;64830;46.910;6.354;2023-12-07T10:23:12;2.91;80.47
76102;SHT30;64830;46.910;6.354;2023-12-07T10:25:40;2.81;80.37
76102;SHT30;64830;46.910;6.354;2023-12-07T10:28:07;2.74;80.31
76102;SHT30;64830;46.910;6.354;2023-12-07T10:30:34;2.77;80.96
76102;SHT30;64830;46.910;6.354;2023-12-07T10:33:00;2.89;80.85
76102;SHT30;64830;46.910;6.354;2023-12-07T10:35:27;3.03;81.33
76102;SHT30;64830;46.910;6.354;2023-12-07T10:37:54;3.19;81.31
76102;SHT30;64830;46.910;6.354;2023-12-07T10:40:20;3.41;80.44
76102;SHT30;64830;46.910;6.354;2023-12-07T10:42:48;3.63;80.11
76102;SHT30;64830;46.910;6.354;2023-12-07T10:45:14;3.79;80.14
76102;SHT30;64830;46.910;6.354;2023-12-07T10:47:43;3.93;78.88
76102;SHT30;64830;46.910;6.354;2023-12-07T10:50:10;4.06;78.52
76102;SHT30;64830;46.910;6.354;2023-12-07T10:52:45;4.17;78.56
76102;SHT30;64830;46.910;6.354;2023-12-07T10:55:51;4.27;77.60
76102;SHT30;64830;46.910;6.354;2023-12-07T10:58:17;4.36;77.37
76102;SHT30;64830;46.910;6.354;2023-12-07T11:00:43;4.47;77.42
76102;SHT30;64830;46.910;6.354;2023-12-07T11:03:14;4.54;78.01
76102;SHT30;64830;46.910;6.354;2023-12-07T11:05:42;4.55;77.40
76102;SHT30;64830;46.910;6.354;2023-12-07T11:08:09;4.65;77.60
76102;SHT30;64830;46.910;6.354;2023-12-07T11:10:43;4.71;78.30
76102;SHT30;64830;46.910;6.354;2023-12-07T11:15:45;4.82;76.08
76102;SHT30;64830;46.910;6.354;2023-12-07T11:18:11;4.89;77.04
76102;SHT30;64830;46.910;6.354;2023-12-07T11:20:41;5.01;75.82
76102;SHT30;64830;46.910;6.354;2023-12-07T11:23:10;5.15;74.95
76102;SHT30;64830;46.910;6.354;2023-12-07T11:25:38;5.24;75.79
76102;SHT30;64830;46.910;6.354;2023-12-07T11:28:05;5.37;75.33
76102;SHT30;64830;46.910;6.354;2023-12-07T11:30:32;5.47;75.00
76102;SHT30;64830;46.910;6.354;2023-12-07T11:32:59;5.52;75.40
76102;SHT30;64830;46.910;6.354;2023-12-07T11:35:25;5.65;75.17
76102;SHT30;64830;46.910;6.354;2023-12-07T11:38:04;5.73;74.75
76102;SHT30;64830;46.910;6.354;2023-12-07T11:40:51;5.80;74.22
76102;SHT30;64830;46.910;6.354;2023-12-07T11:45:57;5.88;72.81
76102;SHT30;64830;46.910;6.354;2023-12-07T11:48:23;5.88;73.51
76102;SHT30;64830;46.910;6.354;2023-12-07T11:53:22;5.90;71.36
76102;SHT30;64830;46.910;6.354;2023-12-07T11:55:48;5.88;72.75
76102;SHT30;64830;46.910;6.354;2023-12-07T11:58:13;5.90;72.28
76102;SHT30;64830;46.910;6.354;2023-12-07T12:00:39;5.93;71.77
76102;SHT30;64830;46.910;6.354;2023-12-07T12:03:05;5.90;71.73
76102;SHT30;64830;46.910;6.354;2023-12-07T12:05:31;5.88;71.97
76102;SHT30;64830;46.910;6.354;2023-12-07T12:07:56;5.78;70.72
76102;SHT30;64830;46.910;6.354;2023-12-07T12:10:22;5.69;71.63
76102;SHT30;64830;46.910;6.354;2023-12-07T12:12:53;5.61;71.20
76102;SHT30;64830;46.910;6.354;2023-12-07T12:15:18;5.50;71.60
76102;SHT30;64830;46.910;6.354;2023-12-07T12:17:45;5.41;71.57
76102;SHT30;64830;46.910;6.354;2023-12-07T12:20:13;5.37;71.99
76102;SHT30;64830;46.910;6.354;2023-12-07T12:22:42;5.30;71.69
76102;SHT30;64830;46.910;6.354;2023-12-07T12:25:08;5.30;71.40
76102;SHT30;64830;46.910;6.354;2023-12-07T12:27:34;5.33;70.90
76102;SHT30;64830;46.910;6.354;2023-12-07T12:30:00;5.34;70.54
76102;SHT30;64830;46.910;6.354;2023-12-07T12:32:26;5.38;70.89
76102;SHT30;64830;46.910;6.354;2023-12-07T12:34:52;5.40;70.69
76102;SHT30;64830;46.910;6.354;2023-12-07T12:37:17;5.34;71.08
76102;SHT30;64830;46.910;6.354;2023-12-07T12:39:43;5.33;70.29
76102;SHT30;64830;46.910;6.354;2023-12-07T12:42:09;5.28;70.64
76102;SHT30;64830;46.910;6.354;2023-12-07T12:44:37;5.26;69.54
76102;SHT30;64830;46.910;6.354;2023-12-07T12:47:07;5.20;69.85
76102;SHT30;64830;46.910;6.354;2023-12-07T12:49:37;5.20;69.94
76102;SHT30;64830;46.910;6.354;2023-12-07T12:52:02;5.22;67.82
76102;SHT30;64830;46.910;6.354;2023-12-07T12:54:31;5.16;68.41
76102;SHT30;64830;46.910;6.354;2023-12-07T12:57:01;5.17;68.53
76102;SHT30;64830;46.910;6.354;2023-12-07T12:59:26;5.17;68.18
76102;SHT30;64830;46.910;6.354;2023-12-07T13:01:52;5.20;68.15
76102;SHT30;64830;46.910;6.354;2023-12-07T13:04:17;5.19;67.60
76102;SHT30;64830;46.910;6.354;2023-12-07T13:06:43;5.19;68.32
76102;SHT30;64830;46.910;6.354;2023-12-07T13:09:08;5.20;66.81
76102;SHT30;64830;46.910;6.354;2023-12-07T13:11:34;5.16;67.06
76102;SHT30;64830;46.910;6.354;2023-12-07T13:13:59;5.17;67.36
76102;SHT30;64830;46.910;6.354;2023-12-07T13:16:24;5.17;66.85
76102;SHT30;64830;46.910;6.354;2023-12-07T13:18:50;5.15;67.22
76102;SHT30;64830;46.910;6.354;2023-12-07T13:21:15;5.12;66.49
76102;SHT30;64830;46.910;6.354;2023-12-07T13:23:41;5.05;65.32
76102;SHT30;64830;46.910;6.354;2023-12-07T13:26:06;4.97;65.80
76102;SHT30;64830;46.910;6.354;2023-12-07T13:28:32;4.95;66.33
76102;SHT30;64830;46.910;6.354;2023-12-07T13:30:57;4.95;66.90
76102;SHT30;64830;46.910;6.354;2023-12-07T13:33:23;4.93;66.44
76102;SHT30;64830;46.910;6.354;2023-12-07T13:35:49;4.90;65.97
76102;SHT30;64830;46.910;6.354;2023-12-07T13:38:14;4.93;66.70
76102;SHT30;64830;46.910;6.354;2023-12-07T13:40:39;4.93;66.94
76102;SHT30;64830;46.910;6.354;2023-12-07T13:43:05;4.95;66.64
76102;SHT30;64830;46.910;6.354;2023-12-07T13:45:32;4.99;66.44
76102;SHT30;64830;46.910;6.354;2023-12-07T13:47:57;5.00;65.84
76102;SHT30;64830;46.910;6.354;2023-12-07T13:50:24;4.97;65.85
76102;SHT30;64830;46.910;6.354;2023-12-07T13:52:49;4.99;66.37
76102;SHT30;64830;46.910;6.354;2023-12-07T13:55:14;4.99;66.33
76102;SHT30;64830;46.910;6.354;2023-12-07T13:57:40;4.97;66.52
76102;SHT30;64830;46.910;6.354;2023-12-07T14:00:06;4.99;66.42
76102;SHT30;64830;46.910;6.354;2023-12-07T14:02:31;5.00;65.78
76102;SHT30;64830;46.910;6.354;2023-12-07T14:04:57;4.97;66.15
76102;SHT30;64830;46.910;6.354;2023-12-07T14:07:22;4.97;66.55
76102;SHT30;64830;46.910;6.354;2023-12-07T14:09:50;4.97;66.28
76102;SHT30;64830;46.910;6.354;2023-12-07T14:12:15;4.95;66.65
76102;SHT30;64830;46.910;6.354;2023-12-07T14:14:42;4.92;66.09
76102;SHT30;64830;46.910;6.354;2023-12-07T14:17:09;4.89;66.25
76102;SHT30;64830;46.910;6.354;2023-12-07T14:19:35;4.85;65.55
76102;SHT30;64830;46.910;6.354;2023-12-07T14:22:01;4.75;65.32
76102;SHT30;64830;46.910;6.354;2023-12-07T14:24:26;4.73;65.55
76102;SHT30;64830;46.910;6.354;2023-12-07T14:26:53;4.71;65.69
76102;SHT30;64830;46.910;6.354;2023-12-07T14:29:19;4.67;65.29
76102;SHT30;64830;46.910;6.354;2023-12-07T14:31:48;4.65;65.76
76102;SHT30;64830;46.910;6.354;2023-12-07T14:34:14;4.62;65.89
76102;SHT30;64830;46.910;6.354;2023-12-07T14:36:41;4.61;65.84
76102;SHT30;64830;46.910;6.354;2023-12-07T14:39:11;4.58;65.48
76102;SHT30;64830;46.910;6.354;2023-12-07T14:41:44;4.51;66.04
76102;SHT30;64830;46.910;6.354;2023-12-07T14:44:12;4.47;66.24
76102;SHT30;64830;46.910;6.354;2023-12-07T14:46:38;4.41;66.64
76102;SHT30;64830;46.910;6.354;2023-12-07T14:49:03;4.41;66.07
76102;SHT30;64830;46.910;6.354;2023-12-07T14:51:28;4.40;66.03
76102;SHT30;64830;46.910;6.354;2023-12-07T14:53:54;4.33;66.07
76102;SHT30;64830;46.910;6.354;2023-12-07T14:56:19;4.30;65.31
76102;SHT30;64830;46.910;6.354;2023-12-07T14:58:47;4.24;65.39
76102;SHT30;64830;46.910;6.354;2023-12-07T15:01:12;4.20;65.93
76102;SHT30;64830;46.910;6.354;2023-12-07T15:03:38;4.16;65.85
76102;SHT30;64830;46.910;6.354;2023-12-07T15:06:04;4.14;66.18
76102;SHT30;64830;46.910;6.354;2023-12-07T15:08:29;4.09;66.08
76102;SHT30;64830;46.910;6.354;2023-12-07T15:10:55;4.07;66.50
76102;SHT30;64830;46.910;6.354;2023-12-07T15:13:21;4.00;66.54
76102;SHT30;64830;46.910;6.354;2023-12-07T15:15:46;3.98;66.39
76102;SHT30;64830;46.910;6.354;2023-12-07T15:18:12;3.92;66.54
76102;SHT30;64830;46.910;6.354;2023-12-07T15:20:37;3.86;66.64
76102;SHT30;64830;46.910;6.354;2023-12-07T15:23:03;3.82;66.58
76102;SHT30;64830;46.910;6.354;2023-12-07T15:25:29;3.72;66.50
76102;SHT30;64830;46.910;6.354;2023-12-07T15:27:55;3.68;66.88
76102;SHT30;64830;46.910;6.354;2023-12-07T15:30:21;3.63;66.43
76102;SHT30;64830;46.910;6.354;2023-12-07T15:32:49;3.55;66.17
76102;SHT30;64830;46.910;6.354;2023-12-07T15:35:15;3.57;67.15
76102;SHT30;64830;46.910;6.354;2023-12-07T15:37:40;3.53;66.78
76102;SHT30;64830;46.910;6.354;2023-12-07T15:40:06;3.50;66.60
76102;SHT30;64830;46.910;6.354;2023-12-07T15:42:38;3.44;67.45
76102;SHT30;64830;46.910;6.354;2023-12-07T15:45:07;3.40;68.14